地図

経路データ

SID SEASON NUMBER BASIN SUBBASIN NAME ISO_TIME NATURE LAT LON WMO_WIND WMO_PRES WMO_AGENCY TRACK_TYPE DIST2LAND LANDFALL IFLAG USA_AGENCY USA_ATCF_ID USA_LAT USA_LON USA_RECORD USA_STATUS USA_WIND USA_PRES USA_SSHS USA_R34_NE USA_R34_SE USA_R34_SW USA_R34_NW USA_R50_NE USA_R50_SE USA_R50_SW USA_R50_NW USA_R64_NE USA_R64_SE USA_R64_SW USA_R64_NW USA_POCI USA_ROCI USA_RMW USA_EYE TOKYO_LAT TOKYO_LON TOKYO_GRADE TOKYO_WIND TOKYO_PRES TOKYO_R50_DIR TOKYO_R50_LONG TOKYO_R50_SHORT TOKYO_R30_DIR TOKYO_R30_LONG TOKYO_R30_SHORT TOKYO_LAND CMA_LAT CMA_LON CMA_CAT CMA_WIND CMA_PRES HKO_LAT HKO_LON HKO_CAT HKO_WIND HKO_PRES NEWDELHI_LAT NEWDELHI_LON NEWDELHI_GRADE NEWDELHI_WIND NEWDELHI_PRES NEWDELHI_CI NEWDELHI_DP NEWDELHI_POCI REUNION_LAT REUNION_LON REUNION_TYPE REUNION_WIND REUNION_PRES REUNION_TNUM REUNION_CI REUNION_RMW REUNION_R34_NE REUNION_R34_SE REUNION_R34_SW REUNION_R34_NW REUNION_R50_NE REUNION_R50_SE REUNION_R50_SW REUNION_R50_NW REUNION_R64_NE REUNION_R64_SE REUNION_R64_SW REUNION_R64_NW BOM_LAT BOM_LON BOM_TYPE BOM_WIND BOM_PRES BOM_TNUM BOM_CI BOM_RMW BOM_R34_NE BOM_R34_SE BOM_R34_SW BOM_R34_NW BOM_R50_NE BOM_R50_SE BOM_R50_SW BOM_R50_NW BOM_R64_NE BOM_R64_SE BOM_R64_SW BOM_R64_NW BOM_ROCI BOM_POCI BOM_EYE BOM_POS_METHOD BOM_PRES_METHOD NADI_LAT NADI_LON NADI_CAT NADI_WIND NADI_PRES WELLINGTON_LAT WELLINGTON_LON WELLINGTON_WIND WELLINGTON_PRES DS824_LAT DS824_LON DS824_STAGE DS824_WIND DS824_PRES TD9636_LAT TD9636_LON TD9636_STAGE TD9636_WIND TD9636_PRES TD9635_LAT TD9635_LON TD9635_WIND TD9635_PRES TD9635_ROCI NEUMANN_LAT NEUMANN_LON NEUMANN_CLASS NEUMANN_WIND NEUMANN_PRES MLC_LAT MLC_LON MLC_CLASS MLC_WIND MLC_PRES USA_GUST BOM_GUST BOM_GUST_PER REUNION_GUST REUNION_GUST_PER USA_SEAHGT USA_SEARAD_NE USA_SEARAD_SE USA_SEARAD_SW USA_SEARAD_NW STORM_SPEED STORM_DIR
1943182N11143 1943 36 WP MM NOT_NAMED 1943-06-30 21:00:00 NR 11.0000 142.500 main 1489 1489 __________O___ -1 11.0000 142.500 7 9 0
1943182N11143 1943 36 WP MM NOT_NAMED 1943-07-01 00:00:00 NR 11.4546 142.478 main 1542 1542 __________P___ -1 11.4546 142.478 7 9 356
1943182N11143 1943 36 WP MM NOT_NAMED 1943-07-01 03:00:00 NR 11.9074 142.434 main 1582 1582 __________P___ -1 11.9074 142.434 7 9 352
1943182N11143 1943 36 WP MM NOT_NAMED 1943-07-01 06:00:00 NR 12.3565 142.349 main 1632 1632 __________P___ -1 12.3565 142.349 7 9 346
1943182N11143 1943 36 WP MM NOT_NAMED 1943-07-01 09:00:00 NR 12.8000 142.200 main 1672 1672 __________O___ -1 12.8000 142.200 7 10 337
1943182N11143 1943 36 WP MM NOT_NAMED 1943-07-01 12:00:00 NR 13.2333 141.975 main 1706 1706 __________P___ -1 13.2333 141.975 7 10 330
1943182N11143 1943 36 WP MM NOT_NAMED 1943-07-01 15:00:00 NR 13.6402 141.696 main 1735 1725 __________P___ -1 13.6402 141.696 7 10 324
1943182N11143 1943 36 WP MM NOT_NAMED 1943-07-01 18:00:00 NR 14.0020 141.394 main 1727 1701 __________P___ -1 14.0020 141.394 7 9 319
1943182N11143 1943 36 WP MM NOT_NAMED 1943-07-01 21:00:00 NR 14.3000 141.100 main 1701 1684 __________O___ -1 14.3000 141.100 7 7 317
1943182N11143 1943 36 WP MM NOT_NAMED 1943-07-02 00:00:00 NR 14.5306 140.885 main 1684 1665 __________P___ -1 14.5306 140.885 7 6 314
1943182N11143 1943 36 WP MM NOT_NAMED 1943-07-02 03:00:00 NR 14.6970 140.679 main 1667 1648 __________P___ -1 14.6970 140.679 7 5 305
1943182N11143 1943 36 WP MM NOT_NAMED 1943-07-02 06:00:00 NR 14.8149 140.460 main 1648 1618 __________P___ -1 14.8149 140.460 7 5 294
1943182N11143 1943 36 WP MM NOT_NAMED 1943-07-02 09:00:00 NR 14.9000 140.200 main 1618 1588 __________O___ -1 14.9000 140.200 7 6 287
1943182N11143 1943 36 WP MM NOT_NAMED 1943-07-02 12:00:00 NR 14.9824 139.904 main 1588 1556 __________P___ -1 14.9824 139.904 7 6 283
1943182N11143 1943 36 WP MM NOT_NAMED 1943-07-02 15:00:00 NR 15.0368 139.562 main 1556 1515 __________P___ -1 15.0368 139.562 7 7 277
1943182N11143 1943 36 WP MM NOT_NAMED 1943-07-02 18:00:00 NR 15.0728 139.164 main 1515 1463 __________P___ -1 15.0728 139.164 7 8 274
1943182N11143 1943 36 WP MM NOT_NAMED 1943-07-02 21:00:00 NR 15.1000 138.700 main 1463 1410 __________O___ -1 15.1000 138.700 7 10 274
1943182N11143 1943 36 WP MM NOT_NAMED 1943-07-03 00:00:00 NR 15.1363 138.177 main 1410 1350 __________P___ -1 15.1363 138.177 7 11 273
1943182N11143 1943 36 WP MM NOT_NAMED 1943-07-03 03:00:00 NR 15.1649 137.590 main 1350 1287 __________P___ -1 15.1649 137.590 7 12 272
1943182N11143 1943 36 WP MM NOT_NAMED 1943-07-03 06:00:00 NR 15.1861 136.958 main 1287 1214 __________P___ -1 15.1861 136.958 7 12 272
1943182N11143 1943 36 WP MM NOT_NAMED 1943-07-03 09:00:00 NR 15.2000 136.300 main 1214 1152 __________O___ -1 15.2000 136.300 7 12 270
1943182N11143 1943 36 WP MM NOT_NAMED 1943-07-03 12:00:00 NR 15.1777 135.678 main 1152 1090 __________P___ -1 15.1777 135.678 7 12 268
1943182N11143 1943 36 WP MM NOT_NAMED 1943-07-03 15:00:00 NR 15.1534 135.031 main 1080 1018 __________P___ -1 15.1534 135.031 7 13 269
1943182N11143 1943 36 WP MM NOT_NAMED 1943-07-03 18:00:00 NR 15.1524 134.343 main 1008 937 __________P___ -1 15.1524 134.343 7 14 272
1943182N11143 1943 36 WP MM NOT_NAMED 1943-07-03 21:00:00 NR 15.2000 133.600 main 937 861 __________O___ -1 15.2000 133.600 7 16 275
1943182N11143 1943 36 WP MM NOT_NAMED 1943-07-04 00:00:00 NR 15.2810 132.742 main 851 778 __________P___ -1 15.2810 132.742 7 17 277
1943182N11143 1943 36 WP MM NOT_NAMED 1943-07-04 03:00:00 NR 15.4166 131.834 main 769 705 __________P___ -1 15.4166 131.834 7 18 281
1943182N11143 1943 36 WP MM NOT_NAMED 1943-07-04 06:00:00 NR 15.6186 130.935 main 696 646 __________P___ -1 15.6186 130.935 7 17 286
1943182N11143 1943 36 WP MM NOT_NAMED 1943-07-04 09:00:00 NR 15.9000 130.100 main 646 600 __________O___ -1 15.9000 130.100 7 17 294
1943182N11143 1943 36 WP MM NOT_NAMED 1943-07-04 12:00:00 NR 16.3107 129.352 main 600 557 __________P___ -1 16.3107 129.352 7 16 303
1943182N11143 1943 36 WP MM NOT_NAMED 1943-07-04 15:00:00 NR 16.7916 128.680 main 563 542 __________P___ -1 16.7916 128.680 7 16 309
1943182N11143 1943 36 WP MM NOT_NAMED 1943-07-04 18:00:00 NR 17.2768 128.093 main 549 541 __________P___ -1 17.2768 128.093 7 14 311
1943182N11143 1943 36 WP MM NOT_NAMED 1943-07-04 21:00:00 NR 17.7000 127.600 main 544 510 __________O___ -1 17.7000 127.600 7 11 310
1943182N11143 1943 36 WP MM NOT_NAMED 1943-07-05 00:00:00 NR 17.9663 127.225 main 510 492 __________P___ -1 17.9663 127.225 7 8 306
1943182N11143 1943 36 WP MM NOT_NAMED 1943-07-05 03:00:00 NR 18.1656 126.938 main 485 464 __________P___ -1 18.1656 126.938 7 6 305
1943182N11143 1943 36 WP MM NOT_NAMED 1943-07-05 06:00:00 NR 18.3322 126.682 main 464 432 __________P___ -1 18.3322 126.682 7 6 303
1943182N11143 1943 36 WP MM NOT_NAMED 1943-07-05 09:00:00 NR 18.5000 126.400 main 432 391 __________O___ -1 18.5000 126.400 7 8 300
1943182N11143 1943 36 WP MM NOT_NAMED 1943-07-05 12:00:00 NR 18.7224 125.979 main 391 352 __________P___ -1 18.7224 125.979 7 9 299
1943182N11143 1943 36 WP MM NOT_NAMED 1943-07-05 15:00:00 NR 18.9508 125.528 main 343 308 __________P___ -1 18.9508 125.528 7 10 298
1943182N11143 1943 36 WP MM NOT_NAMED 1943-07-05 18:00:00 NR 19.1787 125.088 main 308 276 __________P___ -1 19.1787 125.088 7 9 300
1943182N11143 1943 36 WP MM NOT_NAMED 1943-07-05 21:00:00 NR 19.4000 124.700 main 276 258 __________O___ -1 19.4000 124.700 7 8 304
1943182N11143 1943 36 WP MM NOT_NAMED 1943-07-06 00:00:00 NR 19.6026 124.413 main 258 247 __________P___ -1 19.6026 124.413 7 6 309
1943182N11143 1943 36 WP MM NOT_NAMED 1943-07-06 03:00:00 NR 19.7993 124.182 main 253 245 __________P___ -1 19.7993 124.182 7 6 314
1943182N11143 1943 36 WP MM NOT_NAMED 1943-07-06 06:00:00 NR 19.9965 123.985 main 252 245 __________P___ -1 19.9965 123.985 7 5 318
1943182N11143 1943 36 WP MM NOT_NAMED 1943-07-06 09:00:00 NR 20.2000 123.800 main 255 255 __________O___ -1 20.2000 123.800 7 6 319
1943182N11143 1943 36 WP MM NOT_NAMED 1943-07-06 12:00:00 NR 20.4095 123.601 main 261 261 __________P___ -1 20.4095 123.601 7 6 319
1943182N11143 1943 36 WP MM NOT_NAMED 1943-07-06 15:00:00 NR 20.6272 123.407 main 271 268 __________P___ -1 20.6272 123.407 7 6 321
1943182N11143 1943 36 WP MM NOT_NAMED 1943-07-06 18:00:00 NR 20.8564 123.210 main 263 234 __________P___ -1 20.8564 123.210 7 6 321
1943182N11143 1943 36 WP MM NOT_NAMED 1943-07-06 21:00:00 NR 21.1000 123.000 main 234 207 __________O___ -1 21.1000 123.000 7 7 321
1943182N11143 1943 36 WP MM NOT_NAMED 1943-07-07 00:00:00 NR 21.3606 122.764 main 204 168 __________P___ -1 21.3606 122.764 7 7 320
1943182N11143 1943 36 WP MM NOT_NAMED 1943-07-07 03:00:00 NR 21.6350 122.515 main 168 144 __________P___ -1 21.6350 122.515 7 7 320
1943182N11143 1943 36 WP MM NOT_NAMED 1943-07-07 06:00:00 NR 21.9168 122.258 main 144 112 __________P___ -1 21.9168 122.258 7 7 320
1943182N11143 1943 36 WP MM NOT_NAMED 1943-07-07 09:00:00 NR 22.2000 122.000 main 112 83 __________O___ -1 22.2000 122.000 7 7 321
1943182N11143 1943 36 WP MM NOT_NAMED 1943-07-07 12:00:00 NR 22.4458 121.793 main 83 45 __________P___ -1 22.4458 121.793 7 6 322
1943182N11143 1943 36 WP MM NOT_NAMED 1943-07-07 15:00:00 NR 22.6963 121.580 main 45 0 __________P___ -1 22.6963 121.580 7 7 321
1943182N11143 1943 36 WP MM NOT_NAMED 1943-07-07 18:00:00 NR 22.9737 121.327 main 0 0 __________P___ -1 22.9737 121.327 7 8 319
1943182N11143 1943 36 WP MM NOT_NAMED 1943-07-07 21:00:00 NR 23.3000 121.000 main 0 0 __________O___ -1 23.3000 121.000 7 10 318
1943182N11143 1943 36 WP MM NOT_NAMED 1943-07-08 00:00:00 NR 23.7275 120.595 main 0 0 __________P___ -1 23.7275 120.595 7 12 318
1943182N11143 1943 36 WP MM NOT_NAMED 1943-07-08 03:00:00 NR 24.1989 120.108 main 30 30 __________P___ -1 24.1989 120.108 7 14 314
1943182N11143 1943 36 WP MM NOT_NAMED 1943-07-08 06:00:00 NR 24.6708 119.542 main 53 0 __________P___ -1 24.6708 119.542 7 14 309
1943182N11143 1943 36 WP MM NOT_NAMED 1943-07-08 09:00:00 NR 25.1000 118.900 main 0 0 __________O___ -1 25.1000 118.900 7 15 303
1943182N11143 1943 36 WP MM NOT_NAMED 1943-07-08 12:00:00 NR 25.4671 118.173 main 0 0 __________P___ -1 25.4671 118.173 7 15 296
1943182N11143 1943 36 WP MM NOT_NAMED 1943-07-08 15:00:00 NR 25.7792 117.381 main 0 0 __________P___ -1 25.7792 117.381 7 15 291
1943182N11143 1943 36 WP MM NOT_NAMED 1943-07-08 18:00:00 NR 26.0265 116.574 main 0 0 __________P___ -1 26.0265 116.574 7 15 286
1943182N11143 1943 36 WP MM NOT_NAMED 1943-07-08 21:00:00 NR 26.2000 115.800 main 0 0 __________O___ -1 26.2000 115.800 7 13 281
1943182N11143 1943 36 WP MM NOT_NAMED 1943-07-09 00:00:00 NR 26.2912 115.121 main 0 0 __________P___ -1 26.2912 115.121 7 12 276
1943182N11143 1943 36 WP MM NOT_NAMED 1943-07-09 03:00:00 NR 26.3155 114.487 main 0 0 __________P___ -1 26.3155 114.487 7 11 271
1943182N11143 1943 36 WP MM NOT_NAMED 1943-07-09 06:00:00 NR 26.3071 113.884 main 0 0 __________P___ -1 26.3071 113.884 7 11 269
1943182N11143 1943 36 WP MM NOT_NAMED 1943-07-09 09:00:00 NR 26.3000 113.300 main 0 0 __________O___ -1 26.3000 113.300 7 12 268
1943182N11143 1943 36 WP MM NOT_NAMED 1943-07-09 12:00:00 NR 26.2668 112.577 main 0 0 __________P___ -1 26.2668 112.577 7 13 268
1943182N11143 1943 36 WP MM NOT_NAMED 1943-07-09 15:00:00 NR 26.2516 111.888 main 0 0 __________P___ -1 26.2516 111.888 7 11 272
1943182N11143 1943 36 WP MM NOT_NAMED 1943-07-09 18:00:00 NR 26.3103 111.331 main 0 0 __________P___ -1 26.3103 111.331 7 8 287
1943182N11143 1943 36 WP MM NOT_NAMED 1943-07-09 21:00:00 NR 26.5000 111.000 main 0 0 __________O___ -1 26.5000 111.000 7 7 333
1943182N11143 1943 36 WP MM NOT_NAMED 1943-07-10 00:00:00 NR 26.9154 110.983 main 0 0 __________P___ -1 26.9154 110.983 7 10 10
1943182N11143 1943 36 WP MM NOT_NAMED 1943-07-10 03:00:00 NR 27.4586 111.197 main 0 0 __________P___ -1 27.4586 111.197 7 12 25
1943182N11143 1943 36 WP MM NOT_NAMED 1943-07-10 06:00:00 NR 28.0475 111.563 main 0 0 __________P___ -1 28.0475 111.563 7 13 32
1943182N11143 1943 36 WP MM NOT_NAMED 1943-07-10 09:00:00 NR 28.6000 112.000 main 0 0 __________O___ -1 28.6000 112.000 7 11 38
1943182N11143 1943 36 WP MM NOT_NAMED 1943-07-10 12:00:00 NR 28.9059 112.328 main 0 0 __________P___ -1 28.9059 112.328 7 9 47
1943182N11143 1943 36 WP MM NOT_NAMED 1943-07-10 15:00:00 NR 29.1783 112.711 main 0 0 __________P___ -1 29.1783 112.711 7 9 50
1943182N11143 1943 36 WP MM NOT_NAMED 1943-07-10 18:00:00 NR 29.5116 113.162 main 0 0 __________P___ -1 29.5116 113.162 7 12 46
1943182N11143 1943 36 WP MM NOT_NAMED 1943-07-10 21:00:00 NR 30.0000 113.700 main 0 0 __________O___ -1 30.0000 113.700 7 16 39
1943182N11143 1943 36 WP MM NOT_NAMED 1943-07-11 00:00:00 NR 30.7807 114.340 main 0 0 __________P___ -1 30.7807 114.340 7 21 35
1943182N11143 1943 36 WP MM NOT_NAMED 1943-07-11 03:00:00 NR 31.7160 115.075 main 0 0 __________P___ -1 31.7160 115.075 7 23 34
1943182N11143 1943 36 WP MM NOT_NAMED 1943-07-11 06:00:00 NR 32.7180 115.873 main 0 0 __________P___ -1 32.7180 115.873 7 24 35
1943182N11143 1943 36 WP MM NOT_NAMED 1943-07-11 09:00:00 NR 33.7000 116.700 main 0 0 __________O___ -1 33.7000 116.700 7 23 36
1943182N11143 1943 36 WP MM NOT_NAMED 1943-07-11 12:00:00 NR 34.5948 117.525 main 0 0 __________P___ -1 34.5948 117.525 7 22 38
1943182N11143 1943 36 WP MM NOT_NAMED 1943-07-11 15:00:00 NR 35.4098 118.346 main 0 0 __________P___ -1 35.4098 118.346 7 21 40
1943182N11143 1943 36 WP MM NOT_NAMED 1943-07-11 18:00:00 NR 36.1700 119.169 main 0 0 __________P___ -1 36.1700 119.169 7 20 42
1943182N11143 1943 36 WP MM NOT_NAMED 1943-07-11 21:00:00 NR 36.9000 120.000 main 0 __________O___ -1 36.9000 120.000 7 20 42

デジタル台風データ・検索

IBTrACS Databaseについて

本データベースは、米国NOAAが公開する1842年以降の世界の熱帯低気圧のベストトラックデータアーカイブInternational Best Track Archive for Climate Stewardship (IBTrACS)を、ウェブで閲覧しやすい形式に変換したものです。

最終更新日:2021-10-25